createdAt,value
2019-02-06T00:00:26.582Z,76.89
2019-02-06T00:01:23.156Z,75.85
2019-02-06T00:02:21.886Z,76.99
2019-02-06T00:03:21.879Z,76.61
2019-02-06T00:04:21.930Z,76.78
2019-02-06T00:05:22.073Z,76.89
2019-02-06T00:06:21.846Z,77.02
2019-02-06T00:07:21.961Z,75.85
2019-02-06T00:08:21.836Z,77.02
2019-02-06T00:09:21.817Z,76.50
2019-02-06T00:10:21.811Z,76.92
2019-02-06T00:11:21.799Z,77.02
2019-02-06T00:12:21.789Z,75.98
2019-02-06T00:13:21.894Z,76.09
2019-02-06T00:14:21.787Z,76.61
2019-02-06T00:15:21.739Z,75.88
2019-02-06T00:16:21.756Z,75.78
2019-02-06T00:17:21.730Z,76.50
2019-02-06T00:18:21.827Z,76.09
2019-02-06T00:19:21.712Z,76.19
2019-02-06T00:20:21.834Z,76.19
2019-02-06T00:21:22.010Z,76.29
2019-02-06T00:22:21.681Z,76.19
2019-02-06T00:23:21.673Z,76.19
2019-02-06T00:24:21.652Z,76.19
2019-02-06T00:25:21.879Z,76.19
2019-02-06T00:26:21.708Z,75.88
2019-02-06T00:27:21.609Z,76.40
2019-02-06T00:28:22.112Z,76.40
2019-02-06T00:29:21.653Z,76.19
2019-02-06T00:30:21.591Z,76.19
2019-02-06T00:31:23.035Z,76.09
2019-02-06T00:32:21.740Z,76.16
2019-02-06T00:33:21.624Z,75.98
2019-02-06T00:34:21.525Z,75.23
2019-02-06T00:35:25.777Z,75.78
2019-02-06T00:36:21.606Z,76.19
2019-02-06T00:37:21.493Z,75.98
2019-02-06T00:38:21.604Z,75.33
2019-02-06T00:39:21.893Z,75.85
2019-02-06T00:40:21.523Z,75.57
2019-02-06T00:41:21.922Z,75.98
2019-02-06T00:42:21.929Z,75.67
2019-02-06T00:43:21.504Z,75.67
2019-02-06T00:44:21.528Z,75.67
2019-02-06T00:45:21.519Z,76.09
2019-02-06T00:46:21.388Z,75.98
2019-02-06T00:47:21.389Z,76.19
2019-02-06T00:48:21.381Z,75.36
2019-02-06T00:49:21.373Z,75.36
2019-02-06T00:50:21.352Z,75.15
2019-02-06T00:51:21.474Z,75.36
2019-02-06T00:52:21.333Z,75.57
2019-02-06T00:53:21.339Z,75.26
2019-02-06T00:54:21.300Z,75.67
2019-02-06T00:55:21.340Z,76.09
2019-02-06T00:56:21.383Z,75.36
2019-02-06T00:57:21.460Z,75.57
2019-02-06T00:58:21.264Z,75.36
2019-02-06T00:59:21.418Z,75.26
2019-02-06T01:00:21.327Z,75.67
2019-02-06T01:01:21.227Z,75.26
2019-02-06T01:02:21.217Z,75.46
2019-02-06T01:03:21.305Z,75.05
2019-02-06T01:04:21.203Z,75.57
2019-02-06T01:05:21.211Z,75.15
2019-02-06T01:06:22.495Z,75.26
2019-02-06T01:07:21.174Z,75.26
2019-02-06T01:08:21.152Z,75.46
2019-02-06T01:09:21.238Z,75.36
2019-02-06T01:10:21.187Z,75.36
2019-02-06T01:11:21.144Z,75.57
2019-02-06T01:12:21.106Z,75.26
2019-02-06T01:13:21.103Z,74.63
2019-02-06T01:14:21.128Z,74.74
2019-02-06T01:15:21.298Z,74.63
2019-02-06T01:16:21.094Z,74.63
2019-02-06T01:17:21.074Z,74.84
2019-02-06T01:18:21.286Z,74.01
2019-02-06T01:19:21.049Z,74.11
2019-02-06T01:20:21.029Z,74.01
2019-02-06T01:21:21.024Z,73.77
2019-02-06T01:22:21.007Z,73.91
2019-02-06T01:23:21.001Z,74.08
2019-02-06T01:24:21.149Z,73.91
2019-02-06T01:25:20.990Z,74.29
2019-02-06T01:26:20.957Z,73.91
2019-02-06T01:27:21.115Z,74.01
2019-02-06T01:28:20.942Z,73.91
2019-02-06T01:29:20.939Z,73.80
2019-02-06T01:30:21.030Z,73.80
2019-02-06T01:31:20.899Z,73.91
2019-02-06T01:32:20.901Z,74.22
2019-02-06T01:33:20.911Z,74.32
2019-02-06T01:34:20.882Z,73.60
2019-02-06T01:35:21.045Z,74.22
2019-02-06T01:36:20.867Z,73.60
2019-02-06T01:37:20.882Z,74.22
2019-02-06T01:38:20.872Z,73.60
2019-02-06T01:39:20.869Z,73.49
2019-02-06T01:40:20.917Z,73.39
2019-02-06T01:41:21.051Z,73.49
2019-02-06T01:42:20.854Z,73.49
2019-02-06T01:43:20.833Z,73.39
2019-02-06T01:44:20.968Z,73.49
2019-02-06T01:45:20.782Z,74.01
2019-02-06T01:46:20.762Z,73.80
2019-02-06T01:47:20.981Z,73.70
2019-02-06T01:48:20.713Z,73.39
2019-02-06T01:49:20.840Z,73.28
2019-02-06T01:50:20.709Z,73.49
2019-02-06T01:51:20.703Z,73.60
2019-02-06T01:52:20.708Z,73.49
2019-02-06T01:53:20.803Z,73.08
2019-02-06T01:54:20.648Z,72.97
2019-02-06T01:55:20.645Z,72.77
2019-02-06T01:56:20.630Z,73.49
2019-02-06T01:57:20.642Z,73.08
2019-02-06T01:58:20.633Z,73.18
2019-02-06T01:59:20.854Z,73.18
2019-02-06T02:00:20.591Z,73.39
2019-02-06T02:01:20.682Z,72.87
2019-02-06T02:02:20.601Z,72.97
2019-02-06T02:03:20.581Z,73.39
2019-02-06T02:04:20.569Z,73.49
2019-02-06T02:05:20.998Z,73.49
2019-02-06T02:06:20.698Z,73.49
2019-02-06T02:07:20.634Z,73.49
2019-02-06T02:08:20.501Z,73.49
2019-02-06T02:09:20.512Z,72.87
2019-02-06T02:10:20.467Z,73.39
2019-02-06T02:11:20.470Z,73.39
2019-02-06T02:12:20.575Z,73.39
2019-02-06T02:13:20.447Z,73.08
2019-02-06T02:14:20.461Z,73.28
2019-02-06T02:15:20.424Z,73.18
2019-02-06T02:16:20.475Z,73.08
2019-02-06T02:17:20.387Z,73.39
2019-02-06T02:18:20.637Z,73.28
2019-02-06T02:19:20.380Z,73.39
2019-02-06T02:20:20.399Z,73.60
2019-02-06T02:21:20.376Z,72.77
2019-02-06T02:22:20.338Z,73.43
2019-02-06T02:23:20.330Z,73.60
2019-02-06T02:24:20.417Z,74.05
2019-02-06T02:25:20.315Z,73.94
2019-02-06T02:26:20.291Z,73.74
2019-02-06T02:27:20.350Z,74.05
2019-02-06T02:28:20.267Z,74.05
2019-02-06T02:29:20.346Z,73.84
2019-02-06T02:30:20.251Z,73.74
2019-02-06T02:31:20.251Z,73.53
2019-02-06T02:32:20.895Z,73.63
2019-02-06T02:33:20.310Z,73.74
2019-02-06T02:34:20.214Z,73.84
2019-02-06T02:35:20.416Z,73.84
2019-02-06T02:36:20.191Z,74.36
2019-02-06T02:37:20.248Z,73.63
2019-02-06T02:38:20.160Z,73.53
2019-02-06T02:39:20.152Z,73.32
2019-02-06T02:40:20.875Z,73.00
2019-02-06T02:41:20.329Z,72.97
2019-02-06T02:42:20.157Z,72.45
2019-02-06T02:43:20.261Z,72.80
2019-02-06T02:44:20.096Z,72.77
2019-02-06T02:45:20.172Z,72.90
2019-02-06T02:46:20.239Z,72.87
2019-02-06T02:47:20.085Z,72.25
2019-02-06T02:48:20.109Z,71.73
2019-02-06T02:49:20.342Z,72.04
2019-02-06T02:50:20.121Z,71.73
2019-02-06T02:51:20.022Z,72.14
2019-02-06T02:52:20.467Z,71.83
2019-02-06T02:53:20.050Z,71.52
2019-02-06T02:54:20.069Z,71.83
2019-02-06T02:55:19.980Z,71.94
2019-02-06T02:56:20.032Z,71.21
2019-02-06T02:57:20.041Z,71.73
2019-02-06T02:58:21.045Z,71.21
2019-02-06T02:59:19.956Z,71.21
2019-02-06T03:00:20.003Z,70.69
2019-02-06T03:01:19.955Z,71.52
2019-02-06T03:02:19.921Z,70.48
2019-02-06T03:03:19.967Z,71.00
2019-02-06T03:04:20.471Z,70.79
2019-02-06T03:05:19.905Z,70.90
2019-02-06T03:06:28.240Z,70.69
2019-02-06T03:07:20.934Z,69.76
2019-02-06T03:08:20.052Z,69.86
2019-02-06T03:09:20.161Z,69.34
2019-02-06T03:10:19.945Z,69.86
2019-02-06T03:11:19.808Z,70.48
2019-02-06T03:12:19.796Z,69.34
2019-02-06T03:13:19.778Z,70.48
2019-02-06T03:14:19.779Z,70.38
2019-02-06T03:15:19.764Z,70.48
2019-02-06T03:16:20.175Z,70.17
2019-02-06T03:17:19.753Z,69.45
2019-02-06T03:18:19.754Z,69.86
2019-02-06T03:19:19.724Z,69.86
2019-02-06T03:20:19.699Z,69.86
2019-02-06T03:21:19.691Z,70.07
2019-02-06T03:22:19.891Z,70.07
2019-02-06T03:23:19.695Z,69.34
2019-02-06T03:24:19.758Z,68.72
2019-02-06T03:25:19.660Z,69.13
2019-02-06T03:26:19.673Z,67.96
2019-02-06T03:27:19.632Z,67.99
2019-02-06T03:28:19.773Z,68.07
2019-02-06T03:29:19.601Z,68.51
2019-02-06T03:30:19.929Z,67.68
2019-02-06T03:31:19.602Z,67.65
2019-02-06T03:32:19.778Z,67.96
2019-02-06T03:33:19.558Z,67.68
2019-02-06T03:34:19.567Z,68.72
2019-02-06T03:35:19.543Z,69.31
2019-02-06T03:36:19.557Z,69.34
2019-02-06T03:37:19.860Z,69.21
2019-02-06T03:38:19.509Z,69.52
2019-02-06T03:39:19.573Z,69.13
2019-02-06T03:40:19.504Z,69.21
2019-02-06T03:41:19.490Z,69.21
2019-02-06T03:42:19.495Z,69.55
2019-02-06T03:43:19.846Z,68.69
2019-02-06T03:44:19.432Z,69.31
2019-02-06T03:45:19.423Z,68.79
2019-02-06T03:46:19.552Z,69.10
2019-02-06T03:47:19.517Z,69.21
2019-02-06T03:48:19.399Z,69.03
2019-02-06T03:49:19.381Z,69.10
2019-02-06T03:50:19.378Z,68.90
2019-02-06T03:51:19.366Z,69.31
2019-02-06T03:52:19.353Z,68.93
2019-02-06T03:53:19.456Z,69.52
2019-02-06T03:54:19.336Z,69.55
2019-02-06T03:55:19.309Z,69.21
2019-02-06T03:56:19.411Z,69.86
2019-02-06T03:57:19.296Z,69.65
2019-02-06T03:58:19.303Z,69.13
2019-02-06T03:59:19.415Z,69.24
2019-02-06T04:00:19.269Z,69.34
2019-02-06T04:01:19.258Z,69.42
2019-02-06T04:02:19.234Z,69.62
2019-02-06T04:03:19.236Z,69.65
2019-02-06T04:04:19.243Z,69.73
2019-02-06T04:05:19.415Z,69.76
2019-02-06T04:06:19.207Z,69.31
2019-02-06T04:07:19.184Z,69.86
2019-02-06T04:08:19.170Z,69.96
2019-02-06T04:09:19.473Z,70.17
2019-02-06T04:10:19.191Z,70.45
2019-02-06T04:11:19.286Z,71.00
2019-02-06T04:12:19.170Z,71.21
2019-02-06T04:13:19.204Z,71.00
2019-02-06T04:14:19.099Z,70.45
2019-02-06T04:15:19.115Z,69.31
2019-02-06T04:16:19.083Z,70.69
2019-02-06T04:17:19.397Z,70.38
2019-02-06T04:18:19.114Z,70.69
2019-02-06T04:19:19.083Z,70.90
2019-02-06T04:20:19.039Z,71.52
2019-02-06T04:21:19.037Z,70.28
2019-02-06T04:22:19.051Z,70.48
2019-02-06T04:23:19.335Z,70.59
2019-02-06T04:24:18.997Z,70.79
2019-02-06T04:25:18.983Z,71.11
2019-02-06T04:26:19.064Z,71.11
2019-02-06T04:27:18.982Z,70.69
2019-02-06T04:28:19.085Z,71.62
2019-02-06T04:29:19.194Z,71.24
2019-02-06T04:30:19.133Z,71.86
2019-02-06T04:31:18.942Z,71.45
2019-02-06T04:32:18.990Z,71.66
2019-02-06T04:33:19.975Z,72.38
2019-02-06T04:34:18.937Z,72.17
2019-02-06T04:35:19.179Z,72.90
2019-02-06T04:36:19.114Z,73.32
2019-02-06T04:37:18.955Z,74.05
2019-02-06T04:38:18.958Z,73.77
2019-02-06T04:39:18.911Z,74.29
2019-02-06T04:40:18.890Z,75.43
2019-02-06T04:41:19.031Z,75.64
2019-02-06T04:42:18.809Z,76.26
2019-02-06T04:43:18.804Z,76.99
2019-02-06T04:44:18.797Z,77.51
2019-02-06T04:45:18.913Z,77.30
2019-02-06T04:46:19.067Z,77.30
2019-02-06T04:47:19.116Z,78.06
2019-02-06T04:48:18.753Z,77.34
2019-02-06T04:49:18.735Z,77.75
2019-02-06T04:50:18.730Z,77.55
2019-02-06T04:51:18.719Z,78.31
2019-02-06T04:52:18.701Z,78.41
2019-02-06T04:53:18.798Z,79.55
2019-02-06T04:54:18.686Z,79.35
2019-02-06T04:55:18.663Z,79.55
2019-02-06T04:56:18.681Z,80.11
2019-02-06T04:57:18.763Z,80.32
2019-02-06T04:58:18.917Z,80.94
2019-02-06T04:59:18.619Z,81.46
2019-02-06T05:00:18.611Z,81.46
2019-02-06T05:01:18.597Z,81.77
2019-02-06T05:02:18.666Z,81.46
2019-02-06T05:03:18.576Z,81.88
2019-02-06T05:04:19.048Z,82.09
2019-02-06T05:05:18.566Z,82.09
2019-02-06T05:06:18.554Z,82.09
2019-02-06T05:07:19.689Z,82.09
2019-02-06T05:08:18.534Z,82.03
2019-02-06T05:09:18.554Z,82.34
2019-02-06T05:10:19.054Z,82.40
2019-02-06T05:11:18.515Z,82.65
2019-02-06T05:12:19.093Z,82.44
2019-02-06T05:13:18.488Z,82.89
2019-02-06T05:14:18.492Z,82.89
2019-02-06T05:15:18.450Z,83.00
2019-02-06T05:16:18.529Z,83.31
2019-02-06T05:17:18.428Z,83.62
2019-02-06T05:18:18.425Z,84.14
2019-02-06T05:19:18.697Z,84.04
2019-02-06T05:20:18.400Z,83.83
2019-02-06T05:21:18.647Z,83.76
2019-02-06T05:22:18.367Z,83.73
2019-02-06T05:23:18.371Z,84.08
2019-02-06T05:24:18.406Z,84.18
2019-02-06T05:25:18.363Z,84.50
2019-02-06T05:26:18.435Z,85.12
2019-02-06T05:27:18.321Z,84.50
2019-02-06T05:28:18.434Z,84.33
2019-02-06T05:29:18.295Z,84.81
2019-02-06T05:30:18.292Z,85.64
2019-02-06T05:31:18.287Z,85.96
2019-02-06T05:32:18.339Z,86.06
2019-02-06T05:33:18.344Z,86.68
2019-02-06T05:34:18.268Z,86.61
2019-02-06T05:35:18.234Z,87.04
2019-02-06T05:36:18.330Z,86.51
2019-02-06T05:37:31.287Z,87.45
2019-02-06T05:38:19.285Z,87.24
2019-02-06T05:39:18.186Z,87.24
2019-02-06T05:40:18.187Z,87.24
2019-02-06T05:41:18.171Z,87.07
2019-02-06T05:42:18.173Z,87.28
2019-02-06T05:43:18.149Z,87.60
2019-02-06T05:44:18.634Z,87.91
2019-02-06T05:45:18.122Z,87.70
2019-02-06T05:46:18.108Z,87.60
2019-02-06T05:47:18.192Z,87.81
2019-02-06T05:48:18.095Z,87.81
2019-02-06T05:49:18.083Z,88.26
2019-02-06T05:50:18.400Z,88.26
2019-02-06T05:51:18.084Z,88.68
2019-02-06T05:52:18.285Z,89.16
2019-02-06T05:53:18.192Z,88.95
2019-02-06T05:54:18.035Z,88.89
2019-02-06T05:55:18.043Z,89.10
2019-02-06T05:56:18.012Z,89.06
2019-02-06T05:57:18.047Z,88.89
2019-02-06T05:58:18.250Z,89.10
2019-02-06T05:59:18.005Z,89.41
2019-02-06T06:00:17.958Z,89.41
2019-02-06T06:01:17.989Z,89.62
2019-02-06T06:02:18.274Z,89.51
2019-02-06T06:03:17.927Z,89.62
2019-02-06T06:04:18.065Z,89.62
2019-02-06T06:05:17.905Z,89.62
2019-02-06T06:06:17.901Z,89.51
2019-02-06T06:07:17.900Z,89.20
2019-02-06T06:08:18.076Z,89.37
2019-02-06T06:09:17.872Z,89.37
2019-02-06T06:10:17.943Z,89.20
2019-02-06T06:11:18.029Z,89.41
2019-02-06T06:12:17.846Z,88.89
2019-02-06T06:13:18.541Z,89.20
2019-02-06T06:14:17.973Z,88.99
2019-02-06T06:15:17.916Z,89.31
2019-02-06T06:16:17.792Z,89.51
2019-02-06T06:17:17.778Z,89.31
2019-02-06T06:18:17.782Z,89.20
2019-02-06T06:19:17.760Z,89.41
2019-02-06T06:20:17.737Z,89.31
2019-02-06T06:21:17.897Z,89.62
2019-02-06T06:22:17.740Z,89.72
2019-02-06T06:23:17.714Z,89.51
2019-02-06T06:24:17.726Z,89.51
2019-02-06T06:25:17.777Z,89.93
2019-02-06T06:26:17.681Z,89.93
2019-02-06T06:27:17.911Z,90.39
2019-02-06T06:28:17.649Z,89.97
2019-02-06T06:29:17.652Z,90.60
2019-02-06T06:30:17.674Z,90.39
2019-02-06T06:31:17.624Z,90.28
2019-02-06T06:32:17.678Z,90.70
2019-02-06T06:33:17.744Z,90.70
2019-02-06T06:34:18.521Z,90.70
2019-02-06T06:35:17.596Z,90.60
2019-02-06T06:36:17.595Z,90.18
2019-02-06T06:37:17.575Z,90.60
2019-02-06T06:38:17.562Z,90.81
2019-02-06T06:39:17.758Z,90.81
2019-02-06T06:40:17.560Z,90.85
2019-02-06T06:41:17.526Z,90.75
2019-02-06T06:42:17.613Z,90.70
2019-02-06T06:43:17.508Z,90.43
2019-02-06T06:44:17.516Z,90.95
2019-02-06T06:45:17.934Z,91.22
2019-02-06T06:46:17.467Z,91.16
2019-02-06T06:47:17.456Z,91.58
2019-02-06T06:48:17.433Z,91.43
2019-02-06T06:49:17.580Z,91.47
2019-02-06T06:50:17.415Z,91.12
2019-02-06T06:51:17.408Z,91.06
2019-02-06T06:52:17.399Z,91.12
2019-02-06T06:53:17.397Z,91.43
2019-02-06T06:54:17.378Z,91.16
2019-02-06T06:55:17.489Z,91.12
2019-02-06T06:56:17.539Z,91.43
2019-02-06T06:57:17.373Z,91.12
2019-02-06T06:58:17.340Z,91.12
2019-02-06T06:59:17.452Z,91.12
2019-02-06T07:00:17.312Z,90.85
2019-02-06T07:01:17.335Z,90.64
2019-02-06T07:02:17.423Z,90.60
2019-02-06T07:03:17.328Z,90.60
2019-02-06T07:04:17.278Z,90.28
2019-02-06T07:05:17.293Z,90.60
2019-02-06T07:06:17.294Z,90.60
2019-02-06T07:07:17.258Z,90.50
2019-02-06T07:08:17.367Z,89.87
2019-02-06T07:09:17.217Z,89.72
2019-02-06T07:10:17.211Z,90.03
2019-02-06T07:11:17.199Z,89.41
2019-02-06T07:12:17.436Z,89.10
2019-02-06T07:13:17.380Z,89.10
2019-02-06T07:14:17.184Z,89.41
2019-02-06T07:15:17.157Z,88.32
2019-02-06T07:16:17.145Z,88.32
2019-02-06T07:17:17.140Z,87.70
2019-02-06T07:18:17.146Z,87.55
2019-02-06T07:19:17.227Z,87.14
2019-02-06T07:20:17.104Z,87.30
2019-02-06T07:21:17.093Z,86.47
2019-02-06T07:22:17.150Z,86.93
2019-02-06T07:23:17.101Z,86.27
2019-02-06T07:24:17.061Z,85.74
2019-02-06T07:25:17.227Z,85.85
2019-02-06T07:26:17.033Z,85.33
2019-02-06T07:27:17.032Z,85.85
2019-02-06T07:28:17.027Z,85.85
2019-02-06T07:29:17.039Z,85.02
2019-02-06T07:30:17.258Z,85.12
2019-02-06T07:31:17.090Z,85.02
2019-02-06T07:32:16.988Z,84.91
2019-02-06T07:33:16.978Z,84.70
2019-02-06T07:34:16.977Z,85.33
2019-02-06T07:35:16.947Z,85.02
2019-02-06T07:36:17.095Z,85.43
2019-02-06T07:37:16.934Z,85.02
2019-02-06T07:38:24.421Z,85.53
2019-02-06T07:39:18.045Z,85.02
2019-02-06T07:40:16.964Z,84.91
2019-02-06T07:41:16.927Z,85.08
2019-02-06T07:42:16.928Z,84.60
2019-02-06T07:43:16.924Z,84.50
2019-02-06T07:44:16.921Z,84.60
2019-02-06T07:45:17.413Z,84.60
2019-02-06T07:46:16.823Z,84.39
2019-02-06T07:47:17.053Z,83.97
2019-02-06T07:48:16.980Z,83.97
2019-02-06T07:49:16.801Z,83.83
2019-02-06T07:50:16.774Z,83.69
2019-02-06T07:51:17.361Z,83.48
2019-02-06T07:52:16.755Z,82.65
2019-02-06T07:53:16.735Z,82.44
2019-02-06T07:54:17.022Z,82.51
2019-02-06T07:55:16.740Z,82.23
2019-02-06T07:56:16.825Z,82.34
2019-02-06T07:57:16.701Z,82.23
2019-02-06T07:58:16.834Z,81.77
2019-02-06T07:59:16.749Z,80.80
2019-02-06T08:00:16.667Z,80.94
2019-02-06T08:01:16.664Z,80.29
2019-02-06T08:02:16.649Z,79.83
2019-02-06T08:03:16.632Z,78.58
2019-02-06T08:04:16.731Z,78.34
2019-02-06T08:05:16.722Z,77.58
2019-02-06T08:06:16.596Z,77.16
2019-02-06T08:07:16.599Z,77.37
2019-02-06T08:08:16.585Z,76.40
2019-02-06T08:09:16.999Z,75.74
2019-02-06T08:10:16.552Z,75.78
2019-02-06T08:11:16.549Z,75.78
2019-02-06T08:12:16.535Z,75.88
2019-02-06T08:13:17.066Z,76.29
2019-02-06T08:14:16.523Z,75.88
2019-02-06T08:15:16.692Z,75.78
2019-02-06T08:16:16.488Z,75.78
2019-02-06T08:17:16.487Z,75.60
2019-02-06T08:18:16.469Z,75.95
2019-02-06T08:22:48.882Z,78.52
2019-02-06T08:23:48.465Z,78.31
2019-02-06T08:24:48.489Z,77.96
2019-02-06T08:25:49.437Z,77.75
2019-02-06T08:26:48.462Z,77.96
2019-02-06T08:27:48.465Z,77.55
2019-02-06T08:28:48.199Z,77.44
2019-02-06T08:29:48.500Z,77.40
2019-02-06T08:30:47.939Z,76.89
2019-02-06T08:31:48.797Z,76.02
2019-02-06T08:32:47.922Z,76.43
2019-02-06T08:33:48.956Z,76.16
2019-02-06T08:34:47.923Z,77.09
2019-02-06T08:35:47.915Z,76.78
2019-02-06T08:36:47.903Z,76.33
2019-02-06T08:37:48.777Z,75.71
2019-02-06T08:38:50.400Z,76.02
2019-02-06T08:39:47.860Z,75.92
2019-02-06T08:40:47.844Z,75.92
2019-02-06T08:41:47.824Z,75.15
2019-02-06T08:42:47.813Z,74.63
2019-02-06T08:43:47.922Z,75.05
2019-02-06T08:44:47.831Z,74.53
2019-02-06T08:45:47.783Z,74.22
2019-02-06T08:46:47.901Z,73.77
2019-02-06T08:47:47.748Z,72.84
2019-02-06T08:48:47.930Z,72.77
2019-02-06T08:49:48.745Z,71.94
2019-02-06T08:50:47.723Z,72.05
2019-02-06T08:51:47.846Z,71.84
2019-02-06T08:53:02.448Z,71.42
2019-02-06T08:53:47.725Z,71.32
2019-02-06T08:54:47.793Z,71.49
2019-02-06T08:55:47.666Z,71.01
2019-02-06T08:56:47.653Z,68.36
2019-02-06T08:57:47.663Z,65.06
2019-02-06T08:58:47.650Z,63.06
2019-02-06T08:59:47.661Z,58.52
2019-02-06T09:00:47.710Z,55.95
2019-02-06T09:01:47.623Z,53.72
2019-02-06T09:02:47.714Z,51.04
2019-02-06T09:03:47.668Z,48.89
2019-02-06T09:04:55.448Z,49.67
2019-02-06T09:05:48.556Z,51.13
2019-02-06T09:06:47.547Z,50.39
2019-02-06T09:07:47.561Z,49.09
2019-02-06T09:08:59.231Z,49.14
2019-02-06T09:09:48.906Z,49.67
2019-02-06T09:10:47.508Z,49.47
2019-02-06T09:11:47.503Z,49.42
2019-02-06T09:12:47.477Z,47.92
2019-02-06T09:13:47.601Z,47.49
2019-02-06T09:14:47.461Z,45.28
2019-02-06T09:15:47.591Z,43.59
2019-02-06T09:16:47.448Z,43.32
2019-02-06T09:17:47.423Z,44.06
2019-02-06T09:18:47.455Z,43.38
2019-02-06T09:19:47.410Z,42.69
2019-02-06T09:20:47.697Z,43.43
2019-02-06T09:21:47.431Z,45.35
2019-02-06T09:22:47.383Z,46.51
2019-02-06T09:23:47.358Z,46.72
2019-02-06T09:24:47.363Z,46.31
2019-02-06T09:25:47.356Z,45.86
2019-02-06T09:26:47.571Z,45.45
2019-02-06T09:27:47.434Z,45.10
2019-02-06T09:28:47.304Z,43.53
2019-02-06T09:29:47.296Z,41.94
2019-02-06T09:30:47.423Z,41.39
2019-02-06T09:31:47.434Z,40.37
2019-02-06T09:32:47.281Z,40.17
2019-02-06T09:33:47.262Z,41.45
2019-02-06T09:34:47.272Z,42.10
2019-02-06T09:35:47.297Z,43.65
2019-02-06T09:36:47.244Z,44.06
2019-02-06T09:37:47.421Z,43.55
2019-02-06T09:38:47.214Z,43.37
2019-02-06T09:39:47.648Z,43.77
2019-02-06T09:40:49.352Z,44.22
2019-02-06T09:41:47.677Z,45.90
2019-02-06T09:42:47.297Z,46.53
2019-02-06T09:43:47.143Z,46.92
2019-02-06T09:44:47.164Z,46.51
2019-02-06T09:45:47.127Z,47.45
2019-02-06T09:46:47.107Z,47.20
2019-02-06T09:47:47.219Z,45.51
2019-02-06T09:48:47.095Z,44.28
2019-02-06T09:49:49.759Z,44.38
2019-02-06T09:50:47.273Z,44.18
2019-02-06T09:51:47.229Z,43.98
2019-02-06T09:52:47.125Z,43.53
2019-02-06T09:53:47.032Z,42.29
2019-02-06T09:54:47.017Z,42.35
2019-02-06T09:55:47.002Z,41.41
2019-02-06T09:56:47.006Z,40.88
2019-02-06T09:57:47.234Z,39.39
2019-02-06T09:58:46.990Z,38.35
2019-02-06T09:59:47.082Z,36.82
2019-02-06T10:00:46.953Z,38.71
2019-02-06T10:01:46.941Z,41.02
2019-02-06T10:02:46.941Z,41.41
2019-02-06T10:03:47.140Z,41.45
2019-02-06T10:04:46.943Z,42.29
2019-02-06T10:05:47.206Z,41.88
2019-02-06T10:06:46.930Z,41.96
2019-02-06T10:07:47.004Z,42.63
2019-02-06T10:08:46.935Z,43.35
2019-02-06T10:09:47.048Z,43.75
2019-02-06T10:10:46.894Z,42.61
2019-02-06T10:11:47.362Z,43.37
2019-02-06T10:12:46.820Z,45.76
2019-02-06T10:13:46.925Z,45.70
2019-02-06T10:14:46.817Z,47.03
2019-02-06T10:15:46.785Z,45.80
2019-02-06T10:16:46.781Z,48.75
2019-02-06T10:17:47.173Z,49.51
2019-02-06T10:18:46.752Z,49.51
2019-02-06T10:19:46.750Z,51.66
2019-02-06T10:20:46.758Z,53.51
2019-02-06T10:21:50.360Z,54.49
2019-02-06T10:22:47.890Z,54.51
2019-02-06T10:23:46.733Z,54.28
2019-02-06T10:24:46.787Z,53.51
2019-02-06T10:25:46.684Z,51.79
2019-02-06T10:26:46.674Z,51.05
2019-02-06T10:27:46.654Z,50.13
2019-02-06T10:28:47.158Z,50.64
2019-02-06T10:29:46.656Z,49.39
2019-02-06T10:30:46.643Z,48.25
2019-02-06T10:31:46.628Z,45.73
2019-02-06T10:32:46.610Z,42.96
2019-02-06T10:33:46.608Z,41.17
2019-02-06T10:34:46.694Z,41.23
2019-02-06T10:35:46.707Z,42.71
2019-02-06T10:36:46.569Z,43.98
2019-02-06T10:37:46.540Z,45.88
2019-02-06T10:38:46.532Z,45.80
2019-02-06T10:39:46.520Z,46.53
2019-02-06T10:40:46.559Z,46.84
2019-02-06T10:41:46.710Z,48.50
2019-02-06T10:42:46.674Z,48.38
2019-02-06T10:43:46.484Z,46.98
2019-02-06T10:44:46.458Z,44.78
2019-02-06T10:45:46.449Z,43.59
2019-02-06T10:46:46.443Z,40.56
2019-02-06T10:47:46.438Z,38.74
2019-02-06T10:48:46.660Z,37.07
2019-02-06T10:49:46.496Z,36.02
2019-02-06T10:50:47.305Z,34.70
2019-02-06T10:51:46.386Z,34.94
2019-02-06T10:52:48.255Z,36.49
2019-02-06T10:53:46.379Z,35.86
2019-02-06T10:54:46.602Z,36.51
2019-02-06T10:55:46.361Z,37.04
2019-02-06T10:56:46.324Z,37.88
2019-02-06T10:57:46.316Z,39.78
2019-02-06T10:58:46.377Z,40.05
2019-02-06T10:59:46.302Z,37.98
2019-02-06T11:00:46.559Z,39.44
2019-02-06T11:01:46.278Z,39.36
2019-02-06T11:02:46.285Z,39.85
2019-02-06T11:03:46.252Z,38.90
2019-02-06T11:04:46.262Z,37.51
2019-02-06T11:05:46.245Z,36.24
2019-02-06T11:06:46.368Z,34.03
2019-02-06T11:07:46.419Z,34.52
2019-02-06T11:08:46.202Z,35.16
2019-02-06T11:09:46.601Z,36.22
2019-02-06T11:10:46.434Z,37.27
2019-02-06T11:11:46.163Z,38.20
2019-02-06T11:12:46.322Z,38.02
2019-02-06T11:13:46.179Z,37.98
2019-02-06T11:14:46.134Z,38.61
2019-02-06T11:15:46.227Z,37.78
2019-02-06T11:16:46.137Z,38.32
2019-02-06T11:17:46.135Z,40.11
2019-02-06T11:18:46.238Z,40.33
2019-02-06T11:19:46.083Z,40.12
2019-02-06T11:20:46.062Z,41.47
2019-02-06T11:21:46.065Z,41.19
2019-02-06T11:22:46.606Z,41.27
2019-02-06T11:23:46.039Z,41.39
2019-02-06T11:24:46.014Z,41.05
2019-02-06T11:25:46.062Z,41.05
2019-02-06T11:26:46.134Z,43.06
2019-02-06T11:27:45.996Z,43.30
2019-02-06T11:28:45.973Z,43.69
2019-02-06T11:29:48.407Z,43.51
2019-02-06T11:30:45.994Z,44.12
2019-02-06T11:31:46.095Z,45.41
2019-02-06T11:32:46.029Z,47.40
2019-02-06T11:33:45.929Z,48.08
2019-02-06T11:34:46.121Z,49.85
2019-02-06T11:35:45.985Z,49.66
2019-02-06T11:36:45.882Z,48.76
2019-02-06T11:37:46.067Z,49.79
2019-02-06T11:38:46.114Z,49.26
2019-02-06T11:39:57.277Z,48.36
2019-02-06T11:40:47.640Z,48.36
2019-02-06T11:41:45.844Z,47.71
2019-02-06T11:42:45.839Z,46.86
2019-02-06T11:43:45.930Z,46.03
2019-02-06T11:44:45.815Z,46.21
2019-02-06T11:45:45.822Z,45.45
2019-02-06T11:46:45.794Z,44.12
2019-02-06T11:47:45.821Z,44.45
2019-02-06T11:48:45.806Z,45.51
2019-02-06T11:49:46.087Z,47.07
2019-02-06T11:50:45.737Z,46.76
2019-02-06T11:51:45.739Z,47.07
2019-02-06T11:52:45.739Z,46.64
2019-02-06T11:54:56.627Z,47.52
2019-02-06T11:55:56.481Z,48.26
2019-02-06T11:56:56.981Z,48.11
2019-02-06T11:57:56.458Z,46.82
2019-02-06T11:58:56.479Z,44.10
2019-02-06T11:59:56.447Z,43.26
2019-02-06T12:00:57.078Z,42.21
2019-02-06T12:01:56.429Z,42.00
2019-02-06T12:02:56.401Z,42.88
2019-02-06T12:03:56.414Z,44.14
2019-02-06T12:04:56.380Z,45.17
2019-02-06T12:05:56.373Z,44.22
2019-02-06T12:06:56.551Z,46.03
2019-02-06T12:07:56.351Z,47.40
2019-02-06T12:08:56.340Z,46.97
2019-02-06T12:09:56.344Z,47.03
2019-02-06T12:10:56.326Z,45.78
2019-02-06T12:11:56.363Z,46.97
2019-02-06T12:12:56.481Z,47.60
2019-02-06T12:13:56.610Z,47.78
2019-02-06T12:14:56.278Z,46.58
2019-02-06T12:15:56.394Z,46.97
2019-02-06T12:16:56.262Z,46.56
2019-02-06T12:17:56.318Z,47.50
2019-02-06T12:18:56.373Z,48.14
2019-02-06T12:19:56.325Z,48.42
2019-02-06T12:20:56.215Z,47.83
2019-02-06T12:21:56.206Z,48.67
2019-02-06T12:22:56.211Z,49.64
2019-02-06T12:23:56.189Z,49.58
2019-02-06T12:24:56.374Z,50.71
2019-02-06T12:25:57.390Z,51.12
2019-02-06T12:26:56.272Z,51.35
2019-02-06T12:27:56.134Z,51.12
2019-02-06T12:28:56.404Z,50.07
2019-02-06T12:29:56.291Z,50.71
2019-02-06T12:30:56.327Z,50.51
2019-02-06T12:31:56.091Z,51.15
2019-02-06T12:32:56.087Z,51.35
2019-02-06T12:33:56.069Z,51.68
2019-02-06T12:34:56.285Z,51.92
2019-02-06T12:35:56.192Z,53.56
2019-02-06T12:36:56.045Z,52.40
2019-02-06T12:37:56.260Z,52.12
2019-02-06T12:38:56.027Z,53.45
2019-02-06T12:39:56.023Z,53.35
2019-02-06T12:40:56.039Z,53.15
2019-02-06T12:41:56.133Z,53.05
2019-02-06T12:42:55.989Z,53.87
2019-02-06T12:43:55.975Z,53.05
2019-02-06T12:44:58.968Z,53.38
2019-02-06T12:45:56.045Z,53.58
2019-02-06T12:46:56.147Z,54.00
2019-02-06T12:47:56.173Z,53.17
2019-02-06T12:48:56.016Z,54.10
2019-02-06T12:49:55.899Z,54.49
2019-02-06T12:50:55.898Z,54.30
2019-02-06T12:51:55.873Z,54.51
2019-02-06T12:52:57.433Z,54.20
2019-02-06T12:53:55.850Z,54.20
2019-02-06T12:54:55.923Z,54.00
2019-02-06T12:55:55.843Z,54.10
2019-02-06T12:56:55.811Z,54.20